Time;durP1;ratioP1;P1;durP2;ratioP2;P2;SDS_P1;SDS_P2;PMS_P1;PMS_P2;Temp;Humidity;BMP_temperature;BMP_pressure;BME280_temperature;BME280_humidity;BME280_pressure;Samples;Min_cycle;Max_cycle;Signal;HPM_P1;HPM_P2
2021/05/09 00:00:23;;;;;;;6.45;3.58;;;15.00;99.90;;;;;;5052359;28;20059;-84
2021/05/09 00:02:49;;;;;;;8.70;3.90;;;15.00;99.90;;;;;;5050483;28;20072;-84
2021/05/09 00:05:16;;;;;;;8.13;3.88;;;14.90;99.90;;;;;;5050844;28;20049;-84
2021/05/09 00:07:43;;;;;;;5.85;3.50;;;14.80;99.90;;;;;;5048988;28;20177;-83
2021/05/09 00:10:11;;;;;;;6.55;3.53;;;14.70;99.90;;;;;;5064469;28;20052;-83
2021/05/09 00:12:38;;;;;;;5.22;3.40;;;14.60;99.90;;;;;;5048636;28;20067;-84
2021/05/09 00:15:10;;;;;;;7.80;3.70;;;14.50;99.90;;;;;;5051112;28;20106;-85
2021/05/09 00:17:38;;;;;;;7.60;3.90;;;14.40;99.90;;;;;;5065839;28;20044;-82
2021/05/09 00:20:06;;;;;;;7.30;4.70;;;14.30;99.90;;;;;;5051925;28;20341;-84
2021/05/09 00:22:33;;;;;;;6.63;3.78;;;14.30;99.90;;;;;;5051232;28;20048;-83
2021/05/09 00:25:00;;;;;;;5.70;3.83;;;14.20;99.90;;;;;;5065803;28;20130;-84
2021/05/09 00:27:26;;;;;;;7.88;3.95;;;14.10;99.90;;;;;;5065517;28;20076;-85
2021/05/09 00:29:53;;;;;;;5.63;3.65;;;14.10;99.90;;;;;;5046265;28;20040;-85
2021/05/09 00:32:19;;;;;;;7.57;4.00;;;14.10;99.90;;;;;;5048117;28;20056;-86
2021/05/09 00:34:47;;;;;;;8.93;3.88;;;14.10;99.90;;;;;;5044009;28;20052;-84
2021/05/09 00:37:16;;;;;;;9.48;4.20;;;14.00;99.90;;;;;;5047885;28;20051;-84
2021/05/09 00:39:44;;;;;;;7.30;4.22;;;14.10;99.90;;;;;;5062831;28;20045;-84
2021/05/09 00:42:13;;;;;;;7.25;4.25;;;14.10;99.90;;;;;;5051168;28;20463;-83
2021/05/09 00:44:39;;;;;;;7.45;3.70;;;14.00;99.90;;;;;;5050511;28;20053;-84
2021/05/09 00:47:09;;;;;;;6.43;4.32;;;14.00;99.90;;;;;;5048548;28;20075;-84
2021/05/09 00:49:36;;;;;;;6.63;4.43;;;14.00;99.90;;;;;;5062789;28;20143;-85
2021/05/09 00:52:03;;;;;;;5.57;3.90;;;14.00;99.90;;;;;;5035582;28;20060;-84
2021/05/09 00:54:32;;;;;;;8.98;3.50;;;13.90;99.90;;;;;;5049184;28;20048;-84
2021/05/09 00:57:00;;;;;;;8.20;4.20;;;13.80;99.90;;;;;;5042876;28;20052;-85
2021/05/09 00:59:33;;;;;;;7.68;4.40;;;13.80;99.90;;;;;;5055026;28;20103;-83
2021/05/09 01:02:00;;;;;;;7.88;3.60;;;13.70;99.90;;;;;;5047780;28;20055;-85
2021/05/09 01:04:29;;;;;;;6.00;3.92;;;13.60;99.90;;;;;;5049707;28;20041;-84
2021/05/09 01:06:56;;;;;;;6.53;3.72;;;13.60;99.90;;;;;;5047046;28;20060;-83
2021/05/09 01:09:23;;;;;;;7.90;3.75;;;13.60;99.90;;;;;;5023656;28;20060;-84
2021/05/09 01:11:49;;;;;;;6.45;4.55;;;13.60;99.90;;;;;;5042125;28;20095;-85
2021/05/09 01:14:15;;;;;;;7.20;3.92;;;13.60;99.90;;;;;;5048720;28;20163;-84
2021/05/09 01:16:43;;;;;;;9.75;4.40;;;13.50;99.90;;;;;;5050122;28;20036;-85
2021/05/09 01:19:10;;;;;;;8.48;3.83;;;13.40;99.90;;;;;;5027116;28;20447;-85
2021/05/09 01:21:36;;;;;;;7.28;4.25;;;13.40;99.90;;;;;;5030336;28;20080;-85
2021/05/09 01:24:03;;;;;;;6.90;3.70;;;13.40;99.90;;;;;;5045705;28;20053;-85
2021/05/09 01:26:29;;;;;;;7.72;3.67;;;13.30;99.90;;;;;;5051490;28;20040;-84
2021/05/09 01:29:00;;;;;;;5.80;3.30;;;13.30;99.90;;;;;;5034536;28;20055;-85
2021/05/09 01:31:26;;;;;;;4.97;3.55;;;13.30;99.90;;;;;;5048990;28;20053;-84
2021/05/09 01:33:57;;;;;;;7.78;3.30;;;13.30;99.90;;;;;;5028357;28;20057;-84
2021/05/09 01:36:23;;;;;;;7.95;3.58;;;13.30;99.90;;;;;;5043512;28;20109;-84
2021/05/09 01:38:55;;;;;;;7.22;3.88;;;13.30;99.90;;;;;;5074171;28;20079;-84
2021/05/09 01:41:23;;;;;;;5.68;3.60;;;13.30;99.90;;;;;;5067669;28;20068;-85
2021/05/09 01:43:50;;;;;;;7.60;3.60;;;13.30;99.90;;;;;;5060666;28;20057;-84
2021/05/09 01:46:19;;;;;;;6.72;3.70;;;13.30;99.90;;;;;;5067715;28;20103;-84
2021/05/09 01:48:45;;;;;;;8.30;3.78;;;13.20;99.90;;;;;;5034301;28;20053;-84
2021/05/09 01:51:12;;;;;;;6.90;3.25;;;13.20;99.90;;;;;;5051071;28;20041;-85
2021/05/09 01:53:38;;;;;;;5.68;4.50;;;13.10;99.90;;;;;;5057920;28;20408;-84
2021/05/09 01:56:04;;;;;;;6.15;3.60;;;13.10;99.90;;;;;;5048564;28;20100;-84
2021/05/09 01:58:31;;;;;;;7.50;3.80;;;13.10;99.90;;;;;;5038043;28;20056;-82
2021/05/09 02:01:00;;;;;;;6.50;3.75;;;13.10;99.90;;;;;;5049800;28;20079;-85
2021/05/09 02:03:26;;;;;;;4.40;3.25;;;13.10;99.90;;;;;;5054586;28;20080;-83
2021/05/09 02:05:56;;;;;;;5.20;3.30;;;13.10;99.90;;;;;;5050128;28;20113;-83
2021/05/09 02:08:22;;;;;;;9.13;4.25;;;13.20;99.90;;;;;;5045466;28;20078;-84
2021/05/09 02:10:48;;;;;;;7.03;3.60;;;13.20;99.90;;;;;;5017713;28;20468;-83
2021/05/09 02:13:15;;;;;;;8.80;3.58;;;13.20;99.90;;;;;;5051825;28;20061;-83
2021/05/09 02:15:42;;;;;;;7.18;3.70;;;13.20;99.90;;;;;;5046464;28;20087;-85
2021/05/09 02:18:08;;;;;;;7.53;3.40;;;13.20;99.90;;;;;;5044766;28;20061;-84
2021/05/09 02:20:34;;;;;;;9.43;3.78;;;13.10;99.90;;;;;;5051307;28;20118;-84
2021/05/09 02:23:01;;;;;;;5.47;3.40;;;13.10;99.90;;;;;;5037995;28;20048;-86
2021/05/09 02:25:27;;;;;;;6.63;4.05;;;13.10;99.90;;;;;;5036567;28;20427;-85
2021/05/09 02:27:58;;;;;;;7.80;3.63;;;13.10;99.90;;;;;;5045148;28;20058;-84
2021/05/09 02:30:24;;;;;;;4.60;3.40;;;13.10;99.90;;;;;;5051136;28;20045;-84
2021/05/09 02:32:50;;;;;;;6.50;3.50;;;13.10;99.90;;;;;;5031027;28;20084;-84
2021/05/09 02:35:19;;;;;;;8.60;4.28;;;13.00;99.90;;;;;;5050684;28;20132;-85
2021/05/09 02:37:45;;;;;;;5.20;3.60;;;12.90;99.90;;;;;;5049237;28;20102;-84
2021/05/09 02:40:12;;;;;;;5.22;3.40;;;12.90;99.90;;;;;;5045684;28;20051;-84
2021/05/09 02:42:39;;;;;;;8.48;3.70;;;12.80;99.90;;;;;;5062272;28;20132;-84
2021/05/09 02:45:06;;;;;;;6.25;3.33;;;12.90;99.90;;;;;;5042761;28;20045;-84
2021/05/09 02:47:32;;;;;;;6.65;3.72;;;12.80;99.90;;;;;;5061381;28;20064;-85
2021/05/09 02:50:00;;;;;;;7.65;3.58;;;12.80;99.90;;;;;;5047328;28;20132;-85
2021/05/09 02:52:27;;;;;;;8.73;3.38;;;12.80;99.90;;;;;;5046021;28;20053;-85
2021/05/09 02:54:55;;;;;;;8.25;3.45;;;12.80;99.90;;;;;;5062634;28;20064;-85
2021/05/09 02:57:21;;;;;;;8.57;3.55;;;12.80;99.90;;;;;;5050914;28;20045;-85
2021/05/09 02:59:47;;;;;;;5.53;3.72;;;12.70;99.90;;;;;;5051987;28;20053;-84
2021/05/09 03:02:14;;;;;;;7.85;4.90;;;12.70;99.90;;;;;;5053940;28;20053;-85
2021/05/09 03:04:40;;;;;;;7.43;3.53;;;12.70;99.90;;;;;;5052103;28;20077;-83
2021/05/09 03:07:07;;;;;;;6.68;3.80;;;12.70;99.90;;;;;;5065408;28;20103;-83
2021/05/09 03:09:33;;;;;;;9.02;4.05;;;12.60;99.90;;;;;;5068506;28;20128;-84
2021/05/09 03:11:59;;;;;;;7.55;3.50;;;12.60;99.90;;;;;;5055144;28;20076;-84
2021/05/09 03:14:26;;;;;;;5.55;3.95;;;12.60;99.90;;;;;;5051955;28;20103;-85
2021/05/09 03:16:53;;;;;;;8.73;4.05;;;12.50;99.90;;;;;;5068034;28;20464;-84
2021/05/09 03:19:19;;;;;;;8.63;3.85;;;12.50;99.90;;;;;;5066594;28;20049;-84
2021/05/09 03:21:46;;;;;;;7.72;4.20;;;12.50;99.90;;;;;;5051959;28;20060;-85
2021/05/09 03:24:13;;;;;;;10.00;3.90;;;12.40;99.90;;;;;;5050355;28;20116;-84
2021/05/09 03:26:40;;;;;;;9.43;4.07;;;12.40;99.90;;;;;;5053753;28;20041;-84
2021/05/09 03:29:07;;;;;;;8.27;3.95;;;12.40;99.90;;;;;;5051018;28;20052;-83
2021/05/09 03:31:34;;;;;;;8.43;4.18;;;12.30;99.90;;;;;;5065282;28;20500;-84
2021/05/09 03:34:01;;;;;;;6.75;3.85;;;12.30;99.90;;;;;;5049715;28;20056;-84
2021/05/09 03:36:28;;;;;;;6.25;4.50;;;12.20;99.90;;;;;;5066666;28;20048;-84
2021/05/09 03:38:55;;;;;;;9.25;4.60;;;12.20;99.90;;;;;;5064696;28;20045;-84
2021/05/09 03:41:22;;;;;;;7.93;3.90;;;12.20;99.90;;;;;;5041911;28;20128;-84
2021/05/09 03:43:49;;;;;;;8.38;4.20;;;12.20;99.90;;;;;;5051880;28;20053;-85
2021/05/09 03:46:16;;;;;;;8.05;3.97;;;12.20;99.90;;;;;;5046019;28;20069;-84
2021/05/09 03:48:45;;;;;;;6.20;3.97;;;12.20;99.90;;;;;;5051364;28;20132;-84
2021/05/09 03:51:12;;;;;;;5.28;3.67;;;12.20;99.90;;;;;;5045028;28;20127;-85
2021/05/09 03:53:39;;;;;;;8.10;4.25;;;12.20;99.90;;;;;;5053093;28;20104;-86
2021/05/09 03:56:06;;;;;;;11.50;4.15;;;12.20;99.90;;;;;;5068644;28;20103;-84
2021/05/09 03:58:32;;;;;;;6.95;4.05;;;12.20;99.90;;;;;;5073324;28;20071;-84
2021/05/09 04:00:58;;;;;;;7.07;3.70;;;12.20;99.90;;;;;;5065718;28;20052;-85
2021/05/09 04:03:27;;;;;;;17.83;5.50;;;12.20;99.90;;;;;;5065389;28;20125;-85
2021/05/09 04:05:55;;;;;;;8.07;4.18;;;12.20;99.90;;;;;;5077976;28;20136;-84
2021/05/09 04:08:26;;;;;;;11.13;4.30;;;12.20;99.90;;;;;;5063731;28;20044;-84
2021/05/09 04:10:54;;;;;;;5.55;4.63;;;12.20;99.90;;;;;;5076341;28;20053;-84
2021/05/09 04:13:21;;;;;;;7.75;4.72;;;12.20;99.90;;;;;;5051565;28;20451;-84
2021/05/09 04:15:48;;;;;;;11.55;4.25;;;12.30;99.90;;;;;;5051952;28;20040;-84
2021/05/09 04:18:14;;;;;;;7.53;4.22;;;12.30;99.90;;;;;;5050491;28;20076;-84
2021/05/09 04:20:41;;;;;;;9.00;4.18;;;12.30;99.90;;;;;;5066592;28;20407;-84
2021/05/09 04:23:11;;;;;;;7.85;4.20;;;12.40;99.90;;;;;;5048920;28;20159;-84
2021/05/09 04:25:39;;;;;;;9.27;4.18;;;12.40;99.90;;;;;;5048356;28;20025;-84
2021/05/09 04:28:06;;;;;;;8.85;4.90;;;12.50;99.90;;;;;;5050855;28;20053;-84
2021/05/09 04:30:34;;;;;;;10.90;4.70;;;12.50;99.90;;;;;;5048032;28;20073;-85
2021/05/09 04:33:03;;;;;;;6.18;3.92;;;12.50;99.90;;;;;;5059324;28;20044;-83
2021/05/09 04:35:29;;;;;;;7.47;4.30;;;12.50;99.90;;;;;;5051098;28;20659;-83
2021/05/09 04:37:56;;;;;;;7.45;3.85;;;12.60;99.90;;;;;;5050113;28;20045;-84
2021/05/09 04:40:23;;;;;;;5.20;3.67;;;12.70;99.90;;;;;;5050028;28;20408;-84
2021/05/09 04:42:49;;;;;;;6.40;3.75;;;12.70;99.90;;;;;;5063837;28;20083;-84
2021/05/09 04:45:15;;;;;;;9.00;4.18;;;12.80;99.90;;;;;;5052546;28;20051;-84
2021/05/09 04:47:43;;;;;;;6.07;3.45;;;12.80;99.90;;;;;;5051348;28;20124;-84
2021/05/09 04:50:11;;;;;;;6.30;3.85;;;12.90;99.90;;;;;;5049703;28;20120;-85
2021/05/09 04:52:38;;;;;;;5.38;3.83;;;13.00;99.90;;;;;;5050702;28;20092;-84
2021/05/09 04:55:05;;;;;;;6.53;3.97;;;13.00;99.90;;;;;;5046841;28;20129;-84
2021/05/09 04:57:33;;;;;;;6.70;3.97;;;13.10;99.90;;;;;;5066564;28;20126;-84
2021/05/09 05:00:07;;;;;;;11.35;4.13;;;13.20;99.90;;;;;;5049248;28;20519;-85
2021/05/09 05:02:33;;;;;;;7.07;4.45;;;13.30;99.90;;;;;;5047664;28;20514;-84
2021/05/09 05:05:02;;;;;;;9.23;3.40;;;13.40;99.90;;;;;;5049147;28;20053;-84
2021/05/09 05:07:28;;;;;;;5.03;3.50;;;13.50;99.90;;;;;;5065026;28;20144;-84
2021/05/09 05:09:54;;;;;;;8.00;4.82;;;13.70;99.90;;;;;;5062469;28;20048;-84
2021/05/09 05:12:21;;;;;;;6.80;4.15;;;13.80;99.90;;;;;;5050206;28;20553;-83
2021/05/09 05:14:48;;;;;;;4.35;3.15;;;13.80;99.90;;;;;;5060721;28;20063;-84
2021/05/09 05:17:14;;;;;;;5.18;3.60;;;13.90;99.90;;;;;;5047544;28;20099;-84
2021/05/09 05:19:40;;;;;;;8.30;3.72;;;14.00;99.90;;;;;;5049545;28;20416;-84
2021/05/09 05:22:07;;;;;;;7.88;3.90;;;14.00;99.90;;;;;;5049978;28;20826;-85
2021/05/09 05:24:34;;;;;;;6.93;3.78;;;14.10;99.90;;;;;;5065611;28;20049;-85
2021/05/09 05:27:00;;;;;;;6.97;3.38;;;14.20;99.90;;;;;;5049281;28;20683;-85
2021/05/09 05:29:26;;;;;;;8.50;3.80;;;14.30;99.90;;;;;;5049066;28;20089;-85
2021/05/09 05:31:52;;;;;;;5.60;3.38;;;14.30;99.90;;;;;;5049606;28;20110;-85
2021/05/09 05:34:19;;;;;;;11.15;4.43;;;14.40;99.90;;;;;;5049596;28;20087;-85
2021/05/09 05:36:46;;;;;;;8.95;4.70;;;14.50;99.90;;;;;;5062646;28;20554;-85
2021/05/09 05:39:13;;;;;;;6.30;3.90;;;14.50;99.90;;;;;;5045737;28;20056;-85
2021/05/09 05:41:40;;;;;;;9.18;3.97;;;14.60;99.90;;;;;;5048682;28;20065;-86
2021/05/09 05:44:07;;;;;;;8.60;3.92;;;14.70;99.90;;;;;;5047061;28;20048;-85
2021/05/09 05:46:44;;;;;;;7.75;4.43;;;14.90;99.90;;;;;;5046005;28;20048;-85
2021/05/09 05:49:13;;;;;;;7.10;3.47;;;15.00;99.90;;;;;;5065762;28;20474;-85
2021/05/09 05:51:39;;;;;;;5.25;3.22;;;15.10;99.90;;;;;;5048739;28;20068;-84
2021/05/09 05:54:06;;;;;;;6.15;3.40;;;15.30;99.90;;;;;;5048880;28;20068;-83
2021/05/09 05:56:33;;;;;;;6.50;3.90;;;15.60;99.90;;;;;;5047919;28;20535;-86
2021/05/09 05:59:00;;;;;;;4.25;3.55;;;15.90;99.90;;;;;;5040613;28;20158;-84
2021/05/09 06:01:26;;;;;;;5.20;3.80;;;16.20;99.90;;;;;;5061757;28;20440;-84
2021/05/09 06:03:55;;;;;;;6.03;3.55;;;16.30;99.90;;;;;;5039564;28;20059;-84
2021/05/09 06:06:21;;;;;;;5.10;3.33;;;16.30;99.90;;;;;;5050323;28;20510;-84
2021/05/09 06:08:51;;;;;;;6.32;3.05;;;16.30;99.90;;;;;;5061436;28;20432;-85
2021/05/09 06:11:17;;;;;;;9.57;3.70;;;16.30;99.90;;;;;;5044595;28;20132;-85
2021/05/09 06:13:44;;;;;;;4.70;3.50;;;16.40;99.90;;;;;;5049691;28;20112;-83
2021/05/09 06:16:10;;;;;;;5.35;3.70;;;16.40;99.90;;;;;;5061205;28;20537;-83
2021/05/09 06:18:36;;;;;;;6.25;3.60;;;16.40;99.90;;;;;;5039365;28;20079;-84
2021/05/09 06:21:03;;;;;;;5.35;3.40;;;16.40;99.90;;;;;;5060632;28;20136;-85
2021/05/09 06:23:30;;;;;;;5.80;3.33;;;16.40;99.90;;;;;;5047703;28;20032;-84
2021/05/09 06:25:56;;;;;;;5.78;3.03;;;16.50;99.90;;;;;;5042476;28;20083;-84
2021/05/09 06:28:25;;;;;;;5.78;2.97;;;16.60;99.90;;;;;;5047277;28;20424;-85
2021/05/09 06:30:52;;;;;;;7.63;3.90;;;16.60;99.90;;;;;;5043691;28;20053;-85
2021/05/09 06:33:18;;;;;;;6.57;3.22;;;16.70;99.90;;;;;;5058210;28;20135;-86
2021/05/09 06:35:46;;;;;;;7.75;3.72;;;16.80;99.90;;;;;;5040202;28;20099;-85
2021/05/09 06:38:12;;;;;;;3.78;3.42;;;16.90;99.90;;;;;;5046453;28;20025;-85
2021/05/09 06:40:38;;;;;;;4.70;3.28;;;16.90;99.90;;;;;;5062014;28;20148;-86
2021/05/09 06:43:08;;;;;;;5.38;3.50;;;17.00;99.90;;;;;;5065349;28;20101;-86
2021/05/09 06:45:35;;;;;;;3.67;2.58;;;17.00;99.90;;;;;;5062961;28;20068;-84
2021/05/09 06:48:05;;;;;;;3.70;2.83;;;17.10;99.90;;;;;;5047847;28;20077;-83
2021/05/09 06:50:33;;;;;;;5.50;2.97;;;17.20;99.90;;;;;;5064893;28;20061;-83
2021/05/09 06:53:02;;;;;;;6.25;3.80;;;17.30;99.90;;;;;;5054304;28;20056;-85
2021/05/09 06:55:29;;;;;;;3.90;2.80;;;17.30;99.90;;;;;;5060223;28;20059;-86
2021/05/09 06:57:56;;;;;;;10.07;3.13;;;17.40;99.90;;;;;;5045668;28;20053;-85
2021/05/09 07:00:25;;;;;;;5.35;2.95;;;17.30;99.90;;;;;;5043792;28;20136;-85
2021/05/09 07:02:51;;;;;;;6.13;2.83;;;17.30;99.90;;;;;;5056892;28;20045;-86
2021/05/09 07:05:17;;;;;;;6.78;2.40;;;17.30;99.90;;;;;;5042416;28;20053;-86
2021/05/09 07:07:48;;;;;;;2.75;2.55;;;17.40;99.90;;;;;;5045309;28;20072;-86
2021/05/09 07:10:16;;;;;;;4.72;2.53;;;17.40;99.90;;;;;;5042854;28;20134;-86
2021/05/09 07:12:45;;;;;;;5.05;2.78;;;17.40;99.90;;;;;;5041985;28;20168;-86
2021/05/09 07:15:18;;;;;;;3.33;2.35;;;17.40;99.90;;;;;;5044771;28;20052;-87
2021/05/09 07:18:07;;;;;;;;;;;17.40;99.90;;;;;;5035760;28;20064;-85
2021/05/09 07:20:37;;;;;;;5.00;2.47;;;17.40;99.90;;;;;;5061502;28;19920;-86
2021/05/09 07:23:05;;;;;;;4.82;2.92;;;17.50;99.90;;;;;;5057673;28;20976;-86
2021/05/09 07:25:32;;;;;;;3.70;2.30;;;17.50;99.90;;;;;;5039295;28;20103;-86
2021/05/09 07:28:09;;;;;;;3.90;2.50;;;17.70;99.90;;;;;;5058732;28;20080;-87
2021/05/09 07:30:38;;;;;;;5.88;2.25;;;17.80;99.90;;;;;;5042373;28;20076;-86
2021/05/09 07:33:04;;;;;;;4.15;2.55;;;17.80;99.90;;;;;;5056680;28;20577;-85
2021/05/09 07:35:31;;;;;;;4.60;2.42;;;17.90;99.90;;;;;;5037758;28;20503;-86
2021/05/09 07:38:04;;;;;;;4.88;2.15;;;17.90;99.90;;;;;;5044797;28;20148;-85
2021/05/09 07:40:31;;;;;;;;;;;18.00;99.90;;;;;;5034293;28;20138;-85
2021/05/09 07:43:10;;;;;;;3.10;2.03;;;18.00;99.90;;;;;;5045290;28;19924;-85
2021/05/09 07:45:36;;;;;;;2.17;1.67;;;18.10;99.90;;;;;;5048419;28;20114;-86
2021/05/09 07:48:03;;;;;;;5.72;2.53;;;18.20;99.90;;;;;;5045354;28;20063;-86
2021/05/09 07:50:33;;;;;;;3.83;1.88;;;18.30;99.90;;;;;;5047297;28;20053;-87
2021/05/09 07:53:00;;;;;;;4.03;2.35;;;18.50;99.90;;;;;;5063116;28;20449;-86
2021/05/09 07:55:27;;;;;;;3.10;2.03;;;18.70;99.90;;;;;;5048217;28;20052;-86
2021/05/09 07:57:53;;;;;;;4.97;2.70;;;18.90;99.90;;;;;;5046648;28;20091;-86
2021/05/09 08:00:20;;;;;;;9.00;3.03;;;19.10;99.90;;;;;;5042132;28;20040;-87
2021/05/09 08:02:49;;;;;;;2.72;2.40;;;19.30;99.90;;;;;;5056478;28;20135;-86
2021/05/09 08:05:18;;;;;;;4.35;2.30;;;19.60;99.90;;;;;;5040658;28;20183;-86
2021/05/09 08:08:02;;;;;;;4.97;2.10;;;19.80;99.90;;;;;;5044553;28;20053;-86
2021/05/09 08:10:35;;;;;;;4.13;2.45;;;20.20;99.90;;;;;;5046015;28;20048;-86
2021/05/09 08:13:07;;;;;;;6.10;2.63;;;20.50;99.90;;;;;;5040857;28;20049;-85
2021/05/09 08:15:34;;;;;;;6.68;3.13;;;21.00;99.90;;;;;;5035773;28;20068;-85
2021/05/09 08:18:01;;;;;;;3.47;2.35;;;21.20;99.90;;;;;;5042016;28;20069;-85
2021/05/09 08:20:28;;;;;;;5.75;2.30;;;21.30;99.90;;;;;;5051509;28;21507;-86
2021/05/09 08:22:54;;;;;;;2.95;1.95;;;21.40;99.90;;;;;;5049252;28;20059;-85
2021/05/09 08:25:24;;;;;;;4.13;2.35;;;21.60;99.90;;;;;;5064600;28;20407;-84
2021/05/09 08:27:51;;;;;;;3.92;1.95;;;21.70;99.90;;;;;;5067691;28;20175;-85
2021/05/09 08:30:20;;;;;;;5.93;1.90;;;22.00;99.90;;;;;;5067435;28;20507;-85
2021/05/09 08:32:46;;;;;;;2.38;1.90;;;22.30;99.90;;;;;;5055346;28;20069;-85
2021/05/09 08:35:13;;;;;;;3.72;2.00;;;22.50;99.90;;;;;;5076485;28;20088;-85
2021/05/09 08:37:41;;;;;;;3.55;2.20;;;22.70;99.90;;;;;;5064243;28;20037;-85
2021/05/09 08:40:12;;;;;;;3.78;1.95;;;22.90;99.90;;;;;;5061769;28;20025;-85
2021/05/09 08:42:38;;;;;;;3.47;1.83;;;23.00;99.90;;;;;;5061950;28;20059;-85
2021/05/09 08:45:08;;;;;;;2.95;1.67;;;23.00;99.80;;;;;;5060183;28;20087;-84
2021/05/09 08:47:42;;;;;;;2.67;1.58;;;22.90;97.40;;;;;;5057625;28;20069;-86
2021/05/09 08:50:20;;;;;;;1.67;1.58;;;22.90;97.60;;;;;;5050739;28;20103;-85
2021/05/09 08:52:49;;;;;;;3.10;2.28;;;22.80;97.20;;;;;;5046956;28;20986;-85
2021/05/09 08:55:22;;;;;;;3.97;2.00;;;22.50;97.90;;;;;;5040856;28;20114;-85
2021/05/09 08:57:49;;;;;;;3.85;1.42;;;22.30;99.40;;;;;;5045100;28;20041;-86
2021/05/09 09:00:16;;;;;;;3.00;1.90;;;22.10;99.90;;;;;;5047031;28;20059;-86
2021/05/09 09:03:02;;;;;;;3.40;2.00;;;22.00;99.90;;;;;;5046861;28;20079;-86
2021/05/09 09:05:36;;;;;;;5.15;2.05;;;22.00;99.90;;;;;;5061633;28;25142;-85
2021/05/09 09:08:03;;;;;;;3.65;2.03;;;21.90;99.90;;;;;;5055284;28;20166;-85
2021/05/09 09:10:42;;;;;;;5.85;1.90;;;22.00;99.90;;;;;;5045874;28;20133;-86
2021/05/09 09:13:31;;;;;;;2.40;2.10;;;22.20;99.90;;;;;;5044514;28;20076;-86
2021/05/09 09:16:03;;;;;;;6.00;2.28;;;22.50;99.90;;;;;;5044169;28;20041;-86
2021/05/09 09:18:38;;;;;;;2.78;2.03;;;22.80;99.60;;;;;;5039880;28;20045;-84
2021/05/09 09:21:20;;;;;;;3.13;1.67;;;23.20;99.40;;;;;;5037546;28;20048;-85
2021/05/09 09:23:48;;;;;;;4.78;1.70;;;23.60;95.90;;;;;;5046289;28;20051;-85
2021/05/09 09:26:32;;;;;;;2.90;1.70;;;23.70;96.60;;;;;;5045362;28;20045;-86
2021/05/09 09:29:00;;;;;;;5.15;1.75;;;24.10;93.80;;;;;;5046040;28;20108;-86
2021/05/09 09:31:40;;;;;;;2.75;1.48;;;24.30;92.00;;;;;;5045442;28;20061;-85
2021/05/09 09:34:07;;;;;;;3.03;1.67;;;24.40;90.10;;;;;;5043472;28;20056;-84
2021/05/09 09:36:37;;;;;;;1.88;1.48;;;24.30;87.90;;;;;;5058874;28;20108;-85
2021/05/09 09:39:05;;;;;;;4.47;1.45;;;24.30;87.00;;;;;;5043344;28;20088;-85
2021/05/09 09:41:43;;;;;;;1.85;1.25;;;24.30;86.20;;;;;;5060254;28;20095;-85
2021/05/09 09:44:12;;;;;;;1.50;1.40;;;24.40;89.40;;;;;;5020717;28;21562;-86
2021/05/09 09:46:51;;;;;;;3.83;1.40;;;24.70;86.70;;;;;;5055033;28;20182;-87
2021/05/09 09:49:38;;;;;;;2.88;1.60;;;24.80;82.30;;;;;;5042499;28;20059;-86
2021/05/09 09:52:09;;;;;;;2.03;1.33;;;25.10;79.90;;;;;;5039574;28;20119;-86
2021/05/09 09:54:37;;;;;;;3.15;1.40;;;25.00;77.20;;;;;;5061911;28;20145;-86
2021/05/09 09:57:27;;;;;;;4.55;1.40;;;24.80;76.80;;;;;;5045891;28;21083;-86
2021/05/09 10:00:13;;;;;;;2.45;1.20;;;24.70;77.50;;;;;;5060517;28;20068;-86
2021/05/09 10:02:41;;;;;;;0.95;0.90;;;24.90;76.30;;;;;;5045982;28;20075;-86
2021/05/09 10:05:08;;;;;;;3.70;1.10;;;24.90;75.70;;;;;;5047683;28;20044;-86
2021/05/09 10:07:35;;;;;;;1.90;0.93;;;25.10;74.70;;;;;;5059266;28;20068;-85
2021/05/09 10:10:03;;;;;;;2.63;0.75;;;25.30;71.70;;;;;;5042602;28;20081;-85
2021/05/09 10:12:30;;;;;;;1.40;1.00;;;25.60;67.90;;;;;;5060346;28;20080;-85
2021/05/09 10:14:56;;;;;;;2.05;1.02;;;25.50;67.10;;;;;;5043976;28;20072;-85
2021/05/09 10:17:24;;;;;;;1.95;1.45;;;25.40;68.70;;;;;;5057193;28;20119;-85
2021/05/09 10:19:51;;;;;;;4.28;1.35;;;25.40;67.80;;;;;;5057821;28;20054;-85
2021/05/09 10:22:35;;;;;;;1.65;1.13;;;25.30;70.40;;;;;;5044399;28;20049;-85
2021/05/09 10:25:02;;;;;;;;;;;25.30;70.30;;;;;;5043884;28;20407;-86
2021/05/09 10:27:39;;;;;;;4.22;1.70;;;25.30;70.80;;;;;;5058885;28;19944;-85
2021/05/09 10:30:09;;;;;;;2.05;1.70;;;25.40;71.50;;;;;;5043408;28;20045;-85
2021/05/09 10:32:36;;;;;;;2.20;1.55;;;25.60;71.20;;;;;;5058121;28;20096;-85
2021/05/09 10:35:04;;;;;;;4.00;1.73;;;25.60;70.10;;;;;;5058151;28;20048;-85
2021/05/09 10:37:37;;;;;;;2.53;1.50;;;25.60;70.00;;;;;;5036026;28;20136;-85
2021/05/09 10:40:31;;;;;;;3.15;1.80;;;25.50;69.50;;;;;;5060014;28;20064;-86
2021/05/09 10:45:35;;;;;;;3.63;1.58;;;25.30;72.30;;;;;;5045410;28;20052;-85
2021/05/09 10:51:06;;;;;;;3.28;1.83;;;25.20;73.50;;;;;;5045789;28;20053;-85
2021/05/09 10:53:36;;;;;;;2.08;1.65;;;25.10;75.30;;;;;;5063660;28;20045;-85
2021/05/09 10:56:05;;;;;;;3.38;2.08;;;25.20;77.60;;;;;;5044174;28;20053;-86
2021/05/09 10:58:50;;;;;;;2.63;2.08;;;25.30;77.90;;;;;;5063566;28;20552;-85
2021/05/09 11:01:17;;;;;;;2.65;1.70;;;25.30;76.70;;;;;;5048121;28;20056;-85
2021/05/09 11:03:48;;;;;;;4.57;1.65;;;25.30;78.00;;;;;;5048556;28;20408;-85
2021/05/09 11:06:18;;;;;;;4.88;2.50;;;25.50;79.90;;;;;;5047259;28;20076;-85
2021/05/09 11:08:45;;;;;;;6.15;2.17;;;25.90;80.60;;;;;;5060140;28;20548;-85
2021/05/09 11:11:18;;;;;;;4.40;2.20;;;26.40;78.40;;;;;;5063310;28;20096;-85
2021/05/09 11:14:03;;;;;;;6.45;2.50;;;26.70;78.30;;;;;;5051061;28;20128;-86
2021/05/09 11:16:37;;;;;;;3.70;1.98;;;26.90;77.80;;;;;;5061829;28;20066;-85
2021/05/09 11:19:08;;;;;;;3.33;1.40;;;26.90;78.00;;;;;;5077662;28;20142;-85
2021/05/09 11:21:36;;;;;;;3.45;1.80;;;26.90;73.80;;;;;;5081111;28;20053;-85
2021/05/09 11:24:05;;;;;;;2.72;1.48;;;26.80;73.80;;;;;;5056568;28;20056;-85
2021/05/09 11:26:53;;;;;;;2.83;1.60;;;26.80;73.40;;;;;;5062940;28;20045;-85
2021/05/09 11:29:22;;;;;;;1.77;1.38;;;26.80;73.80;;;;;;5054151;28;20049;-85
2021/05/09 11:31:55;;;;;;;4.10;1.58;;;26.90;72.80;;;;;;5051991;28;20106;-85
2021/05/09 11:34:22;;;;;;;;;;;27.30;73.20;;;;;;5053583;28;20049;-85
2021/05/09 11:36:51;;;;;;;1.80;1.70;;;27.60;72.50;;;;;;5047535;28;19924;-87
2021/05/09 11:39:31;;;;;;;2.47;1.50;;;27.70;70.90;;;;;;5048819;28;20045;-85
2021/05/09 11:41:58;;;;;;;2.63;1.70;;;27.50;70.10;;;;;;5047398;28;20541;-86
2021/05/09 11:44:35;;;;;;;4.63;1.60;;;27.20;70.60;;;;;;5047854;28;20415;-86
2021/05/09 11:47:05;;;;;;;2.15;1.30;;;26.90;72.00;;;;;;5047038;28;20484;-86
2021/05/09 11:49:34;;;;;;;1.63;1.52;;;26.50;72.00;;;;;;5053879;28;20045;-85
2021/05/09 11:52:11;;;;;;;5.88;1.67;;;26.20;72.60;;;;;;5042427;28;20049;-86
2021/05/09 11:54:43;;;;;;;7.18;1.83;;;25.80;76.60;;;;;;5045585;28;20507;-85
2021/05/09 11:57:13;;;;;;;3.67;1.90;;;25.40;78.20;;;;;;5042479;28;20052;-86
2021/05/09 11:59:48;;;;;;;6.57;2.30;;;24.90;81.90;;;;;;5048375;28;20048;-85
2021/05/09 12:02:21;;;;;;;3.60;1.70;;;24.40;84.20;;;;;;5050487;28;20504;-87
2021/05/09 12:05:21;;;;;;;3.65;2.30;;;24.10;86.90;;;;;;5050097;28;20578;-86
2021/05/09 12:07:59;;;;;;;3.92;2.35;;;24.00;89.30;;;;;;4993196;28;20059;-85
2021/05/09 12:10:26;;;;;;;3.10;1.80;;;24.10;92.40;;;;;;5032919;28;20076;-85
2021/05/09 12:13:03;;;;;;;3.75;2.55;;;24.30;96.00;;;;;;5042559;28;20118;-86
2021/05/09 12:15:43;;;;;;;7.65;3.00;;;24.60;95.90;;;;;;5064072;28;20060;-85
2021/05/09 12:18:11;;;;;;;4.78;2.30;;;25.10;98.40;;;;;;5044712;28;20221;-85
2021/05/09 12:20:43;;;;;;;7.65;2.85;;;25.10;94.70;;;;;;5056533;28;20088;-85
2021/05/09 12:23:17;;;;;;;6.50;2.55;;;24.60;94.90;;;;;;5045048;28;20052;-85
2021/05/09 12:25:45;;;;;;;2.60;2.13;;;24.00;98.10;;;;;;5043667;28;20123;-85
2021/05/09 12:28:14;;;;;;;4.18;2.22;;;23.60;99.90;;;;;;5049336;28;20638;-86
2021/05/09 12:30:42;;;;;;;4.53;2.47;;;23.20;99.90;;;;;;5051859;28;20080;-85
2021/05/09 12:33:08;;;;;;;6.40;2.58;;;22.90;99.90;;;;;;5065472;28;20049;-85
2021/05/09 12:35:49;;;;;;;3.47;2.33;;;22.50;99.90;;;;;;5049700;28;20053;-85
2021/05/09 12:38:27;;;;;;;4.35;2.97;;;22.00;99.90;;;;;;5050101;28;20051;-86
2021/05/09 12:41:06;;;;;;;4.72;2.97;;;21.40;99.90;;;;;;5048821;28;20104;-86
2021/05/09 12:43:45;;;;;;;5.15;2.72;;;21.00;99.90;;;;;;5048347;28;20076;-86
2021/05/09 12:46:32;;;;;;;3.17;2.50;;;20.70;99.90;;;;;;5063980;28;20040;-85
2021/05/09 12:49:20;;;;;;;7.50;2.92;;;20.60;99.90;;;;;;5050721;28;20128;-85
2021/05/09 12:51:49;;;;;;;3.50;2.60;;;20.70;99.90;;;;;;5049756;28;20029;-85
2021/05/09 12:54:34;;;;;;;2.95;2.75;;;20.90;99.90;;;;;;5047871;28;20071;-85
2021/05/09 12:57:20;;;;;;;4.93;2.80;;;21.30;99.90;;;;;;5048747;28;20045;-85
2021/05/09 13:00:05;;;;;;;10.38;2.28;;;21.80;99.90;;;;;;5048185;28;20081;-84
2021/05/09 13:02:47;;;;;;;5.38;2.22;;;22.40;99.90;;;;;;5039290;28;20075;-85
2021/05/09 13:05:19;;;;;;;6.30;2.33;;;22.80;99.90;;;;;;5048950;28;20073;-85